createdAt,value
2023-08-12T00:00:23.422Z,17.50
2023-08-12T00:02:50.518Z,17.50
2023-08-12T00:05:17.754Z,17.60
2023-08-12T00:07:44.775Z,17.60
2023-08-12T00:10:12.918Z,17.60
2023-08-12T00:12:40.277Z,17.60
2023-08-12T00:15:09.510Z,17.60
2023-08-12T00:17:42.921Z,17.60
2023-08-12T00:20:12.640Z,17.70
2023-08-12T00:22:40.528Z,17.70
2023-08-12T00:25:08.092Z,17.60
2023-08-12T00:27:35.457Z,17.60
2023-08-12T00:30:02.669Z,17.50
2023-08-12T00:32:29.650Z,17.60
2023-08-12T00:34:57.915Z,17.50
2023-08-12T00:37:24.869Z,17.50
2023-08-12T00:39:53.077Z,17.40
2023-08-12T00:42:20.046Z,17.40
2023-08-12T00:44:47.077Z,17.40
2023-08-12T00:47:15.406Z,17.30
2023-08-12T00:49:45.106Z,17.30
2023-08-12T00:52:16.564Z,17.30
2023-08-12T00:54:43.673Z,17.30
2023-08-12T00:57:10.761Z,17.30
2023-08-12T00:59:38.456Z,17.20
2023-08-12T01:02:06.519Z,17.20
2023-08-12T01:04:33.555Z,17.20
2023-08-12T01:07:00.572Z,17.20
2023-08-12T01:09:28.807Z,17.10
2023-08-12T01:12:12.366Z,17.10
2023-08-12T01:14:52.404Z,17.10
2023-08-12T01:17:20.369Z,17.00
2023-08-12T01:19:49.079Z,17.00
2023-08-12T01:22:17.893Z,17.00
2023-08-12T01:24:45.663Z,16.90
2023-08-12T01:27:14.390Z,16.90
2023-08-12T01:29:47.186Z,16.80
2023-08-12T01:32:38.610Z,16.80
2023-08-12T01:35:21.717Z,16.80
2023-08-12T01:37:52.383Z,16.70
2023-08-12T01:40:20.736Z,16.70
2023-08-12T01:42:48.987Z,16.70
2023-08-12T01:45:16.172Z,16.70
2023-08-12T01:47:46.301Z,16.70
2023-08-12T01:50:13.253Z,16.60
2023-08-12T01:52:40.196Z,16.70
2023-08-12T01:55:07.355Z,16.60
2023-08-12T01:57:34.379Z,16.60
2023-08-12T02:00:02.969Z,16.60
2023-08-12T02:02:43.843Z,16.60
2023-08-12T02:05:11.081Z,16.60
2023-08-12T02:07:37.977Z,16.50
2023-08-12T02:10:05.098Z,16.50
2023-08-12T02:12:32.497Z,16.60
2023-08-12T02:14:59.382Z,16.50
2023-08-12T02:17:26.300Z,16.50
2023-08-12T02:19:53.253Z,16.50
2023-08-12T02:22:20.195Z,16.50
2023-08-12T02:24:47.587Z,16.50
2023-08-12T02:27:14.928Z,16.50
2023-08-12T02:29:41.985Z,16.50
2023-08-12T02:32:08.865Z,16.50
2023-08-12T02:34:35.741Z,16.50
2023-08-12T02:37:02.658Z,16.40
2023-08-12T02:39:30.840Z,16.40
2023-08-12T02:41:57.731Z,16.40
2023-08-12T02:44:24.705Z,16.40
2023-08-12T02:46:51.609Z,16.40
2023-08-12T02:49:19.141Z,16.30
2023-08-12T02:51:46.043Z,16.30
2023-08-12T02:54:12.959Z,16.30
2023-08-12T02:56:40.094Z,16.30
2023-08-12T02:59:07.068Z,16.30
2023-08-12T03:01:34.019Z,16.20
2023-08-12T03:04:00.982Z,16.20
2023-08-12T03:06:27.850Z,16.20
2023-08-12T03:08:54.842Z,16.20
2023-08-12T03:11:21.784Z,16.10
2023-08-12T03:13:48.685Z,16.10
2023-08-12T03:16:15.974Z,16.10
2023-08-12T03:18:45.545Z,16.10
2023-08-12T03:21:12.508Z,16.10
2023-08-12T03:23:41.950Z,16.10
2023-08-12T03:26:10.530Z,16.00
2023-08-12T03:28:37.450Z,16.10
2023-08-12T03:31:04.700Z,16.10
2023-08-12T03:33:34.926Z,16.10
2023-08-12T03:36:03.081Z,16.00
2023-08-12T03:38:29.973Z,16.00
2023-08-12T03:40:57.159Z,16.00
2023-08-12T03:43:24.922Z,16.00
2023-08-12T03:45:52.571Z,16.00
2023-08-12T03:48:20.712Z,16.00
2023-08-12T03:50:48.688Z,15.90
2023-08-12T03:53:15.840Z,16.00
2023-08-12T03:55:43.355Z,16.00
2023-08-12T03:58:11.525Z,16.00
2023-08-12T04:00:43.840Z,16.00
2023-08-12T04:03:12.460Z,16.00
2023-08-12T04:05:47.678Z,16.00
2023-08-12T04:08:14.772Z,16.00
2023-08-12T04:10:41.708Z,16.00
2023-08-12T04:13:08.568Z,16.00
2023-08-12T04:15:35.442Z,16.10
2023-08-12T04:18:02.349Z,16.10
2023-08-12T04:20:29.309Z,16.10
2023-08-12T04:22:56.372Z,16.10
2023-08-12T04:25:23.838Z,16.10
2023-08-12T04:27:52.415Z,16.10
2023-08-12T04:30:19.878Z,16.10
2023-08-12T04:32:47.766Z,16.10
2023-08-12T04:35:14.802Z,16.20
2023-08-12T04:37:43.469Z,16.20
2023-08-12T04:40:10.721Z,16.30
2023-08-12T04:42:37.661Z,16.40
2023-08-12T04:45:06.301Z,16.50
2023-08-12T04:47:33.843Z,16.50
2023-08-12T04:50:01.238Z,16.60
2023-08-12T04:52:30.074Z,16.70
2023-08-12T04:54:57.025Z,16.80
2023-08-12T04:57:25.245Z,17.00
2023-08-12T04:59:52.207Z,17.10
2023-08-12T05:02:22.601Z,17.20
2023-08-12T05:04:51.081Z,17.30
2023-08-12T05:07:18.769Z,17.40
2023-08-12T05:09:45.742Z,17.50
2023-08-12T05:12:14.993Z,17.60
2023-08-12T05:14:42.337Z,17.70
2023-08-12T05:17:09.555Z,17.70
2023-08-12T05:19:36.881Z,17.80
2023-08-12T05:22:03.976Z,17.90
2023-08-12T05:24:31.174Z,18.00
2023-08-12T05:26:58.343Z,18.00
2023-08-12T05:29:25.248Z,18.20
2023-08-12T05:31:52.201Z,18.30
2023-08-12T05:34:19.062Z,18.30
2023-08-12T05:36:46.105Z,18.40
2023-08-12T05:39:13.131Z,18.50
2023-08-12T05:41:40.306Z,18.60
2023-08-12T05:44:07.365Z,18.70
2023-08-12T05:46:34.373Z,18.80
2023-08-12T05:49:01.263Z,18.90
2023-08-12T05:51:30.658Z,19.00
2023-08-12T05:53:57.781Z,19.10
2023-08-12T05:56:24.718Z,19.30
2023-08-12T05:58:51.729Z,19.40
2023-08-12T06:01:18.957Z,19.40
2023-08-12T06:03:45.958Z,19.50
2023-08-12T06:06:13.015Z,19.60
2023-08-12T06:08:40.028Z,19.60
2023-08-12T06:11:07.028Z,19.60
2023-08-12T06:13:33.852Z,19.60
2023-08-12T06:16:00.852Z,19.60
2023-08-12T06:18:27.781Z,19.70
2023-08-12T06:20:54.663Z,19.70
2023-08-12T06:23:21.564Z,19.70
2023-08-12T06:25:48.430Z,19.80
2023-08-12T06:28:15.401Z,19.80
2023-08-12T06:30:46.860Z,19.80
2023-08-12T06:33:13.744Z,19.90
2023-08-12T06:35:41.048Z,19.90
2023-08-12T06:38:07.949Z,20.00
2023-08-12T06:40:34.756Z,20.00
2023-08-12T06:43:02.023Z,20.10
2023-08-12T06:45:29.125Z,20.20
2023-08-12T06:47:56.147Z,20.20
2023-08-12T06:50:23.051Z,20.30
2023-08-12T06:52:49.934Z,20.40
2023-08-12T06:55:16.847Z,20.50
2023-08-12T06:57:43.727Z,20.70
2023-08-12T07:00:11.173Z,20.80
2023-08-12T07:02:38.177Z,20.90
2023-08-12T07:05:05.642Z,21.10
2023-08-12T07:07:32.557Z,21.20
2023-08-12T07:09:59.565Z,21.30
2023-08-12T07:12:26.474Z,21.40
2023-08-12T07:14:53.521Z,21.50
2023-08-12T07:17:20.382Z,21.70
2023-08-12T07:19:48.269Z,21.80
2023-08-12T07:22:15.211Z,21.90
2023-08-12T07:24:42.107Z,21.90
2023-08-12T07:27:08.998Z,22.00
2023-08-12T07:29:35.813Z,22.10
2023-08-12T07:32:02.717Z,22.20
2023-08-12T07:34:31.711Z,22.20
2023-08-12T07:36:58.858Z,22.30
2023-08-12T07:39:25.749Z,22.40
2023-08-12T07:41:52.610Z,22.40
2023-08-12T07:44:19.520Z,22.50
2023-08-12T07:46:46.613Z,22.50
2023-08-12T07:49:13.555Z,22.60
2023-08-12T07:51:40.463Z,22.70
2023-08-12T07:54:07.567Z,22.80
2023-08-12T07:56:34.472Z,22.80
2023-08-12T07:59:01.457Z,22.80
2023-08-12T08:01:28.317Z,22.70
2023-08-12T08:03:55.237Z,22.60
2023-08-12T08:06:24.873Z,22.50
2023-08-12T08:08:51.732Z,22.60
2023-08-12T08:11:18.597Z,23.00
2023-08-12T08:13:45.475Z,23.40
2023-08-12T08:16:12.487Z,23.90
2023-08-12T08:18:39.459Z,24.30
2023-08-12T08:21:06.427Z,24.60
2023-08-12T08:23:33.594Z,25.10
2023-08-12T08:26:00.542Z,25.70
2023-08-12T08:28:27.480Z,26.40
2023-08-12T08:30:54.816Z,26.80
2023-08-12T08:33:21.791Z,27.10
2023-08-12T08:35:48.735Z,27.30
2023-08-12T08:38:15.592Z,27.80
2023-08-12T08:40:43.295Z,28.40
2023-08-12T08:43:11.400Z,29.00
2023-08-12T08:45:39.181Z,29.30
2023-08-12T08:48:07.669Z,29.80
2023-08-12T08:50:35.997Z,30.40
2023-08-12T08:53:05.843Z,31.00
2023-08-12T08:55:33.058Z,31.20
2023-08-12T08:58:05.501Z,31.20
2023-08-12T09:00:33.091Z,31.00
2023-08-12T09:03:00.265Z,30.70
2023-08-12T09:05:28.747Z,30.40
2023-08-12T09:07:57.812Z,30.20
2023-08-12T09:10:29.553Z,29.90
2023-08-12T09:12:57.780Z,29.80
2023-08-12T09:15:25.305Z,29.70
2023-08-12T09:17:52.380Z,29.70
2023-08-12T09:20:19.505Z,29.60
2023-08-12T09:22:46.609Z,29.70
2023-08-12T09:25:14.069Z,29.80
2023-08-12T09:27:41.040Z,29.90
2023-08-12T09:30:09.639Z,30.20
2023-08-12T09:32:37.087Z,30.60
2023-08-12T09:35:06.283Z,30.90
2023-08-12T09:37:33.188Z,31.00
2023-08-12T09:40:00.105Z,31.00
2023-08-12T09:42:28.844Z,31.00
2023-08-12T09:44:57.218Z,31.30
2023-08-12T09:47:27.103Z,31.60
2023-08-12T09:49:54.241Z,31.60
2023-08-12T09:52:21.150Z,31.30
2023-08-12T09:54:48.510Z,31.20
2023-08-12T09:57:17.888Z,31.20
2023-08-12T09:59:47.630Z,31.10
2023-08-12T10:02:19.760Z,31.20
2023-08-12T10:04:51.854Z,31.60
2023-08-12T10:07:20.228Z,31.90
2023-08-12T10:09:47.578Z,32.00
2023-08-12T10:12:18.672Z,32.00
2023-08-12T10:14:48.494Z,31.90
2023-08-12T10:17:23.640Z,31.90
2023-08-12T10:20:01.036Z,32.20
2023-08-12T10:22:28.694Z,32.60
2023-08-12T10:24:55.930Z,33.00
2023-08-12T10:27:23.234Z,33.30
2023-08-12T10:29:50.628Z,33.60
2023-08-12T10:32:17.652Z,33.90
2023-08-12T10:34:44.665Z,33.90
2023-08-12T10:37:14.837Z,33.60
2023-08-12T10:39:41.813Z,33.60
2023-08-12T10:42:08.716Z,33.60
2023-08-12T10:44:52.860Z,33.70
2023-08-12T10:47:20.113Z,34.10
2023-08-12T10:49:51.179Z,34.30
2023-08-12T10:52:36.396Z,34.40
2023-08-12T10:55:25.121Z,34.50
2023-08-12T10:57:56.582Z,34.60
2023-08-12T11:00:28.829Z,35.00
2023-08-12T11:02:59.769Z,35.30
2023-08-12T11:05:37.954Z,35.40
2023-08-12T11:08:07.546Z,35.50
2023-08-12T11:10:36.093Z,35.60
2023-08-12T11:13:04.444Z,35.80
2023-08-12T11:15:33.985Z,35.80
2023-08-12T11:18:07.628Z,35.60
2023-08-12T11:20:35.767Z,35.00
2023-08-12T11:23:06.604Z,34.50
2023-08-12T11:25:34.629Z,34.20
2023-08-12T11:28:01.886Z,34.00
2023-08-12T11:30:31.976Z,34.10
2023-08-12T11:33:00.818Z,34.60
2023-08-12T11:35:27.924Z,35.00
2023-08-12T11:37:57.277Z,35.00
2023-08-12T11:40:26.629Z,35.10
2023-08-12T11:42:54.241Z,34.80
2023-08-12T11:45:26.885Z,34.50
2023-08-12T11:47:55.130Z,34.20
2023-08-12T11:50:25.239Z,33.90
2023-08-12T11:52:53.521Z,33.60
2023-08-12T11:55:20.721Z,33.20
2023-08-12T11:57:47.848Z,33.10
2023-08-12T12:00:16.657Z,33.00
2023-08-12T12:02:46.735Z,33.20
2023-08-12T12:05:15.050Z,33.50
2023-08-12T12:07:42.638Z,33.70
2023-08-12T12:10:13.508Z,33.70
2023-08-12T12:12:40.366Z,33.60
2023-08-12T12:15:07.925Z,33.70
2023-08-12T12:17:41.577Z,33.90
2023-08-12T12:20:11.792Z,33.90
2023-08-12T12:22:39.408Z,33.90
2023-08-12T12:25:09.394Z,33.80
2023-08-12T12:27:37.692Z,34.00
2023-08-12T12:30:04.826Z,34.00
2023-08-12T12:32:33.109Z,34.00
2023-08-12T12:35:00.027Z,33.70
2023-08-12T12:37:27.023Z,33.60
2023-08-12T12:39:54.106Z,33.40
2023-08-12T12:42:20.977Z,33.50
2023-08-12T12:44:48.046Z,33.60
2023-08-12T12:47:14.980Z,33.60
2023-08-12T12:49:45.097Z,33.40
2023-08-12T12:52:12.421Z,33.40
2023-08-12T12:54:39.503Z,33.50
2023-08-12T12:57:06.960Z,33.70
2023-08-12T12:59:34.186Z,33.90
2023-08-12T13:02:01.070Z,34.10
2023-08-12T13:04:28.285Z,34.30
2023-08-12T13:06:56.482Z,34.50
2023-08-12T13:09:23.369Z,34.60
2023-08-12T13:11:50.305Z,34.20
2023-08-12T13:14:20.054Z,34.00
2023-08-12T13:16:47.125Z,33.60
2023-08-12T13:19:14.003Z,33.20
2023-08-12T13:21:40.999Z,32.90
2023-08-12T13:24:08.556Z,32.60
2023-08-12T13:26:35.581Z,32.30
2023-08-12T13:29:02.473Z,32.00
2023-08-12T13:31:29.466Z,31.70
2023-08-12T13:33:56.510Z,31.10
2023-08-12T13:36:23.435Z,30.10
2023-08-12T13:38:50.460Z,29.00
2023-08-12T13:41:17.439Z,28.00
2023-08-12T13:43:44.321Z,27.00
2023-08-12T13:46:11.546Z,26.30
2023-08-12T13:48:38.455Z,25.70
2023-08-12T13:51:05.501Z,25.20
2023-08-12T13:53:32.340Z,24.60
2023-08-12T13:55:59.199Z,24.10
2023-08-12T13:58:26.077Z,23.80
2023-08-12T14:00:53.081Z,23.60
2023-08-12T14:03:20.009Z,23.40
2023-08-12T14:05:46.949Z,23.30
2023-08-12T14:08:13.902Z,23.20
2023-08-12T14:10:41.514Z,23.20
2023-08-12T14:13:08.455Z,23.30
2023-08-12T14:15:36.061Z,23.30
2023-08-12T14:18:03.333Z,23.30
2023-08-12T14:20:30.260Z,23.30
2023-08-12T14:22:57.169Z,23.00
2023-08-12T14:25:24.224Z,22.90
2023-08-12T14:27:51.174Z,22.80
2023-08-12T14:30:25.908Z,22.80
2023-08-12T14:32:53.360Z,22.70
2023-08-12T14:35:20.377Z,22.60
2023-08-12T14:37:47.243Z,22.60
2023-08-12T14:40:14.216Z,22.60
2023-08-12T14:42:41.147Z,22.50
2023-08-12T14:45:08.900Z,22.40
2023-08-12T14:47:35.764Z,22.40
2023-08-12T14:50:02.918Z,22.30
2023-08-12T14:52:29.775Z,22.30
2023-08-12T14:54:56.747Z,22.30
2023-08-12T14:57:23.599Z,22.40
2023-08-12T14:59:52.054Z,22.30
2023-08-12T15:02:21.714Z,22.20
2023-08-12T15:04:48.687Z,22.10
2023-08-12T15:07:17.498Z,22.10
2023-08-12T15:09:44.503Z,22.30
2023-08-12T15:12:11.521Z,22.60
2023-08-12T15:14:38.370Z,22.80
2023-08-12T15:17:05.300Z,22.90
2023-08-12T15:19:32.167Z,23.00
2023-08-12T15:21:59.779Z,23.30
2023-08-12T15:24:26.725Z,23.60
2023-08-12T15:26:53.571Z,23.90
2023-08-12T15:29:20.476Z,24.10
2023-08-12T15:31:47.867Z,24.20
2023-08-12T15:34:14.879Z,24.40
2023-08-12T15:36:43.031Z,24.50
2023-08-12T15:39:10.299Z,24.60
2023-08-12T15:41:42.853Z,24.70
2023-08-12T15:44:10.966Z,24.80
2023-08-12T15:46:40.760Z,24.90
2023-08-12T15:49:11.377Z,24.80
2023-08-12T15:51:39.112Z,24.80
2023-08-12T15:54:06.569Z,24.80
2023-08-12T15:56:35.913Z,25.00
2023-08-12T15:59:05.574Z,25.20
2023-08-12T16:01:33.473Z,25.30
2023-08-12T16:04:01.052Z,25.30
2023-08-12T16:06:28.013Z,25.50
2023-08-12T16:09:15.130Z,25.50
2023-08-12T16:11:41.771Z,25.50
2023-08-12T16:14:08.703Z,25.50
2023-08-12T16:16:35.613Z,25.40
2023-08-12T16:19:03.487Z,25.30
2023-08-12T16:21:30.767Z,25.30
2023-08-12T16:23:57.771Z,25.20
2023-08-12T16:26:24.913Z,25.00
2023-08-12T16:28:51.749Z,24.90
2023-08-12T16:31:18.756Z,24.70
2023-08-12T16:33:45.845Z,24.60
2023-08-12T16:36:12.806Z,24.60
2023-08-12T16:38:40.039Z,24.40
2023-08-12T16:41:06.899Z,24.30
2023-08-12T16:43:33.906Z,24.20
2023-08-12T16:46:00.944Z,24.10
2023-08-12T16:48:27.989Z,24.00
2023-08-12T16:50:54.868Z,24.00
2023-08-12T16:53:21.921Z,23.90
2023-08-12T16:55:49.049Z,23.90
2023-08-12T16:58:15.964Z,24.00
2023-08-12T17:00:43.797Z,24.00
2023-08-12T17:03:10.818Z,24.00
2023-08-12T17:05:37.712Z,24.00
2023-08-12T17:08:04.883Z,24.00
2023-08-12T17:10:31.774Z,24.00
2023-08-12T17:12:58.650Z,23.90
2023-08-12T17:15:25.590Z,23.90
2023-08-12T17:17:52.534Z,23.80
2023-08-12T17:20:19.484Z,23.70
2023-08-12T17:22:46.348Z,23.70
2023-08-12T17:25:13.300Z,23.60
2023-08-12T17:27:40.194Z,23.60
2023-08-12T17:30:07.968Z,23.50
2023-08-12T17:32:35.283Z,23.30
2023-08-12T17:35:02.285Z,23.20
2023-08-12T17:37:29.155Z,23.00
2023-08-12T17:39:56.113Z,23.00
2023-08-12T17:42:23.008Z,23.00
2023-08-12T17:44:49.938Z,22.90
2023-08-12T17:47:17.812Z,22.90
2023-08-12T17:49:44.782Z,22.80
2023-08-12T17:52:12.165Z,22.70
2023-08-12T17:54:39.320Z,22.70
2023-08-12T17:57:06.304Z,22.60
2023-08-12T17:59:34.937Z,22.60
2023-08-12T18:02:01.892Z,22.60
2023-08-12T18:04:28.800Z,22.50
2023-08-12T18:06:55.972Z,22.50
2023-08-12T18:09:22.953Z,22.40
2023-08-12T18:11:49.854Z,22.30
2023-08-12T18:14:17.413Z,22.30
2023-08-12T18:16:44.461Z,22.30
2023-08-12T18:19:11.400Z,22.30
2023-08-12T18:21:38.319Z,22.20
2023-08-12T18:24:05.380Z,22.30
2023-08-12T18:26:32.316Z,22.20
2023-08-12T18:28:59.210Z,22.20
2023-08-12T18:31:26.163Z,22.10
2023-08-12T18:33:53.128Z,22.10
2023-08-12T18:36:19.990Z,22.00
2023-08-12T18:38:47.090Z,21.90
2023-08-12T18:41:13.977Z,21.80
2023-08-12T18:43:40.852Z,21.80
2023-08-12T18:46:07.802Z,21.70
2023-08-12T18:48:34.807Z,21.60
2023-08-12T18:51:01.920Z,21.60
2023-08-12T18:53:30.696Z,21.50
2023-08-12T18:55:57.804Z,21.50
2023-08-12T18:58:24.737Z,21.40
2023-08-12T19:00:51.720Z,21.40
2023-08-12T19:03:18.680Z,21.30
2023-08-12T19:05:46.721Z,21.30
2023-08-12T19:08:16.469Z,21.30
2023-08-12T19:10:45.209Z,21.30
2023-08-12T19:13:12.217Z,21.30
2023-08-12T19:15:39.327Z,21.20
2023-08-12T19:18:06.497Z,21.20
2023-08-12T19:20:33.521Z,21.20
2023-08-12T19:23:00.405Z,21.20
2023-08-12T19:25:27.545Z,21.10
2023-08-12T19:27:54.436Z,21.10
2023-08-12T19:30:21.520Z,21.10
2023-08-12T19:32:53.382Z,21.00
2023-08-12T19:35:21.203Z,21.00
2023-08-12T19:37:49.097Z,21.00
2023-08-12T19:40:17.298Z,21.00
2023-08-12T19:42:44.819Z,20.90
2023-08-12T19:45:12.005Z,20.90
2023-08-12T19:47:43.097Z,20.80
2023-08-12T19:50:11.779Z,20.80
2023-08-12T19:52:39.299Z,20.70
2023-08-12T19:55:07.838Z,20.70
2023-08-12T19:57:34.917Z,20.60
2023-08-12T20:00:02.193Z,20.50
2023-08-12T20:02:40.229Z,20.50
2023-08-12T20:05:18.321Z,20.40
2023-08-12T20:07:47.791Z,20.40
2023-08-12T20:10:19.991Z,20.40
2023-08-12T20:12:47.320Z,20.30
2023-08-12T20:15:14.718Z,20.30
2023-08-12T20:17:41.952Z,20.20
2023-08-12T20:20:19.090Z,20.20
2023-08-12T20:23:03.430Z,20.10
2023-08-12T20:25:32.271Z,20.00
2023-08-12T20:27:59.609Z,20.00
2023-08-12T20:30:27.158Z,19.90
2023-08-12T20:32:55.519Z,19.80
2023-08-12T20:35:23.182Z,19.80
2023-08-12T20:37:51.027Z,19.80
2023-08-12T20:40:19.068Z,19.80
2023-08-12T20:42:46.543Z,19.90
2023-08-12T20:45:13.611Z,19.90
2023-08-12T20:47:42.354Z,19.90
2023-08-12T20:50:09.892Z,19.80
2023-08-12T20:52:37.113Z,19.80
2023-08-12T20:55:04.738Z,19.80
2023-08-12T20:57:31.692Z,19.70
2023-08-12T21:00:01.891Z,19.70
2023-08-12T21:02:29.860Z,19.70
2023-08-12T21:04:56.887Z,19.70
2023-08-12T21:07:23.854Z,19.70
2023-08-12T21:09:50.735Z,19.70
2023-08-12T21:12:17.676Z,19.70
2023-08-12T21:14:44.770Z,19.70
2023-08-12T21:17:11.642Z,19.70
2023-08-12T21:19:38.521Z,19.70
2023-08-12T21:22:05.452Z,19.70
2023-08-12T21:24:32.380Z,19.70
2023-08-12T21:26:59.351Z,19.70
2023-08-12T21:29:26.228Z,19.60
2023-08-12T21:31:53.201Z,19.60
2023-08-12T21:34:20.126Z,19.60
2023-08-12T21:36:47.009Z,19.60
2023-08-12T21:39:14.526Z,19.60
2023-08-12T21:41:41.511Z,19.60
2023-08-12T21:44:08.412Z,19.60
2023-08-12T21:46:35.319Z,19.60
2023-08-12T21:49:02.285Z,19.60
2023-08-12T21:51:29.270Z,19.50
2023-08-12T21:53:56.135Z,19.50
2023-08-12T21:56:23.100Z,19.60
2023-08-12T21:58:50.009Z,19.60
2023-08-12T22:01:16.958Z,19.70
2023-08-12T22:03:43.982Z,19.70
2023-08-12T22:06:11.765Z,19.70
2023-08-12T22:08:38.762Z,19.70
2023-08-12T22:11:05.646Z,19.70
2023-08-12T22:13:32.630Z,19.70
2023-08-12T22:15:59.519Z,19.70
2023-08-12T22:18:26.591Z,19.70
2023-08-12T22:20:53.841Z,19.60
2023-08-12T22:23:22.956Z,19.70
2023-08-12T22:25:50.896Z,19.60
2023-08-12T22:28:19.985Z,19.60
2023-08-12T22:30:48.750Z,19.60
2023-08-12T22:33:16.385Z,19.50
2023-08-12T22:35:43.506Z,19.50
2023-08-12T22:38:10.667Z,19.50
2023-08-12T22:40:37.807Z,19.50
2023-08-12T22:43:05.088Z,19.50
2023-08-12T22:45:34.371Z,19.50
2023-08-12T22:48:01.349Z,19.50
2023-08-12T22:50:28.331Z,19.40
2023-08-12T22:52:55.266Z,19.40
2023-08-12T22:55:22.166Z,19.40
2023-08-12T22:57:49.505Z,19.40
2023-08-12T23:00:16.746Z,19.40
2023-08-12T23:02:43.828Z,19.40
2023-08-12T23:05:11.428Z,19.30
2023-08-12T23:07:38.359Z,19.30
2023-08-12T23:10:06.312Z,19.30
2023-08-12T23:12:33.205Z,19.30
2023-08-12T23:15:00.126Z,19.20
2023-08-12T23:17:27.198Z,19.10
2023-08-12T23:19:54.069Z,19.00
2023-08-12T23:22:20.971Z,19.00
2023-08-12T23:24:47.845Z,19.00
2023-08-12T23:27:14.708Z,19.00
2023-08-12T23:29:41.655Z,19.00
2023-08-12T23:32:08.736Z,19.00
2023-08-12T23:34:35.665Z,19.00
2023-08-12T23:37:03.187Z,18.90
2023-08-12T23:39:31.867Z,18.90
2023-08-12T23:41:58.915Z,18.90
2023-08-12T23:44:25.857Z,18.90
2023-08-12T23:46:52.866Z,18.80
2023-08-12T23:49:19.899Z,18.80
2023-08-12T23:51:48.728Z,18.80
2023-08-12T23:54:15.628Z,18.70
2023-08-12T23:56:42.569Z,18.70
2023-08-12T23:59:09.469Z,18.70
